sensor_id;sensor_type;location;lat;lon;timestamp;temperature;humidity
9951;DHT22;24074;49.254;6.702;2023-12-28T00:00:16;6.70;99.90
9951;DHT22;24074;49.254;6.702;2023-12-28T00:02:41;6.70;99.90
9951;DHT22;24074;49.254;6.702;2023-12-28T00:05:07;6.80;99.90
9951;DHT22;24074;49.254;6.702;2023-12-28T00:07:33;6.80;99.90
9951;DHT22;24074;49.254;6.702;2023-12-28T00:10:02;6.90;99.90
9951;DHT22;24074;49.254;6.702;2023-12-28T00:12:28;7.00;99.90
9951;DHT22;24074;49.254;6.702;2023-12-28T00:14:54;7.00;99.90
9951;DHT22;24074;49.254;6.702;2023-12-28T00:17:19;7.10;99.90
9951;DHT22;24074;49.254;6.702;2023-12-28T00:19:45;7.10;99.90
9951;DHT22;24074;49.254;6.702;2023-12-28T00:22:11;7.10;99.90
9951;DHT22;24074;49.254;6.702;2023-12-28T00:24:36;7.20;99.90
9951;DHT22;24074;49.254;6.702;2023-12-28T00:27:02;7.20;99.90
9951;DHT22;24074;49.254;6.702;2023-12-28T00:29:28;7.20;99.90
9951;DHT22;24074;49.254;6.702;2023-12-28T00:31:54;7.30;99.90
9951;DHT22;24074;49.254;6.702;2023-12-28T00:34:20;7.30;99.90
9951;DHT22;24074;49.254;6.702;2023-12-28T00:36:45;7.30;99.90
9951;DHT22;24074;49.254;6.702;2023-12-28T00:39:11;7.40;99.90
9951;DHT22;24074;49.254;6.702;2023-12-28T00:41:36;7.40;99.90
9951;DHT22;24074;49.254;6.702;2023-12-28T00:44:02;7.40;99.90
9951;DHT22;24074;49.254;6.702;2023-12-28T00:46:28;7.40;99.90
9951;DHT22;24074;49.254;6.702;2023-12-28T00:48:53;7.50;99.90
9951;DHT22;24074;49.254;6.702;2023-12-28T00:51:20;7.50;99.90
9951;DHT22;24074;49.254;6.702;2023-12-28T00:53:45;7.60;99.90
9951;DHT22;24074;49.254;6.702;2023-12-28T00:56:11;7.60;99.90
9951;DHT22;24074;49.254;6.702;2023-12-28T00:58:40;7.60;99.90
9951;DHT22;24074;49.254;6.702;2023-12-28T01:01:06;7.70;99.90
9951;DHT22;24074;49.254;6.702;2023-12-28T01:03:31;7.70;99.90
9951;DHT22;24074;49.254;6.702;2023-12-28T01:05:57;7.70;99.90
9951;DHT22;24074;49.254;6.702;2023-12-28T01:08:22;7.80;99.90
9951;DHT22;24074;49.254;6.702;2023-12-28T01:10:48;7.80;99.90
9951;DHT22;24074;49.254;6.702;2023-12-28T01:13:13;7.80;99.90
9951;DHT22;24074;49.254;6.702;2023-12-28T01:15:39;7.80;99.90
9951;DHT22;24074;49.254;6.702;2023-12-28T01:18:05;7.80;99.90
9951;DHT22;24074;49.254;6.702;2023-12-28T01:20:30;7.70;99.90
9951;DHT22;24074;49.254;6.702;2023-12-28T01:22:56;7.70;99.90
9951;DHT22;24074;49.254;6.702;2023-12-28T01:25:21;7.60;99.90
9951;DHT22;24074;49.254;6.702;2023-12-28T01:27:47;7.60;99.90
9951;DHT22;24074;49.254;6.702;2023-12-28T01:30:12;7.60;99.90
9951;DHT22;24074;49.254;6.702;2023-12-28T01:32:38;7.60;99.90
9951;DHT22;24074;49.254;6.702;2023-12-28T01:35:04;7.60;99.90
9951;DHT22;24074;49.254;6.702;2023-12-28T01:37:29;7.60;99.90
9951;DHT22;24074;49.254;6.702;2023-12-28T01:39:59;7.60;99.90
9951;DHT22;24074;49.254;6.702;2023-12-28T01:42:25;7.60;99.90
9951;DHT22;24074;49.254;6.702;2023-12-28T01:44:50;7.70;99.90
9951;DHT22;24074;49.254;6.702;2023-12-28T01:47:16;7.70;99.90
9951;DHT22;24074;49.254;6.702;2023-12-28T01:49:42;7.70;99.90
9951;DHT22;24074;49.254;6.702;2023-12-28T01:52:08;7.70;99.90
9951;DHT22;24074;49.254;6.702;2023-12-28T01:54:34;7.70;99.90
9951;DHT22;24074;49.254;6.702;2023-12-28T01:57:03;7.70;99.90
9951;DHT22;24074;49.254;6.702;2023-12-28T01:59:29;7.70;99.90
9951;DHT22;24074;49.254;6.702;2023-12-28T02:01:58;7.60;99.90
9951;DHT22;24074;49.254;6.702;2023-12-28T02:04:23;7.60;99.90
9951;DHT22;24074;49.254;6.702;2023-12-28T02:06:59;7.60;99.90
9951;DHT22;24074;49.254;6.702;2023-12-28T02:09:24;7.50;99.90
9951;DHT22;24074;49.254;6.702;2023-12-28T02:11:50;7.50;99.90
9951;DHT22;24074;49.254;6.702;2023-12-28T02:14:16;7.50;99.90
9951;DHT22;24074;49.254;6.702;2023-12-28T02:16:54;7.50;99.90
9951;DHT22;24074;49.254;6.702;2023-12-28T02:19:25;7.50;99.90
9951;DHT22;24074;49.254;6.702;2023-12-28T02:21:59;7.50;99.90
9951;DHT22;24074;49.254;6.702;2023-12-28T02:24:24;7.60;99.90
9951;DHT22;24074;49.254;6.702;2023-12-28T02:26:50;7.60;99.90
9951;DHT22;24074;49.254;6.702;2023-12-28T02:29:16;7.60;99.90
9951;DHT22;24074;49.254;6.702;2023-12-28T02:31:58;7.60;99.90
9951;DHT22;24074;49.254;6.702;2023-12-28T02:34:33;7.60;99.90
9951;DHT22;24074;49.254;6.702;2023-12-28T02:37:01;7.50;99.90
9951;DHT22;24074;49.254;6.702;2023-12-28T02:39:28;7.60;99.90
9951;DHT22;24074;49.254;6.702;2023-12-28T02:41:54;7.60;99.90
9951;DHT22;24074;49.254;6.702;2023-12-28T02:44:21;7.60;99.90
9951;DHT22;24074;49.254;6.702;2023-12-28T02:46:46;7.60;99.90
9951;DHT22;24074;49.254;6.702;2023-12-28T02:49:12;7.60;99.90
9951;DHT22;24074;49.254;6.702;2023-12-28T02:51:41;7.60;99.90
9951;DHT22;24074;49.254;6.702;2023-12-28T02:54:07;7.60;99.90
9951;DHT22;24074;49.254;6.702;2023-12-28T02:56:33;7.60;99.90
9951;DHT22;24074;49.254;6.702;2023-12-28T02:58:59;7.60;99.90
9951;DHT22;24074;49.254;6.702;2023-12-28T03:01:25;7.60;99.90
9951;DHT22;24074;49.254;6.702;2023-12-28T03:03:50;7.70;99.90
9951;DHT22;24074;49.254;6.702;2023-12-28T03:06:16;7.70;99.90
9951;DHT22;24074;49.254;6.702;2023-12-28T03:08:41;7.70;99.90
9951;DHT22;24074;49.254;6.702;2023-12-28T03:11:07;7.70;99.90
9951;DHT22;24074;49.254;6.702;2023-12-28T03:13:32;7.80;99.90
9951;DHT22;24074;49.254;6.702;2023-12-28T03:15:58;7.70;99.90
9951;DHT22;24074;49.254;6.702;2023-12-28T03:18:26;7.80;99.90
9951;DHT22;24074;49.254;6.702;2023-12-28T03:20:52;7.80;99.90
9951;DHT22;24074;49.254;6.702;2023-12-28T03:23:18;7.80;99.90
9951;DHT22;24074;49.254;6.702;2023-12-28T03:25:43;7.80;99.90
9951;DHT22;24074;49.254;6.702;2023-12-28T03:28:09;7.80;99.90
9951;DHT22;24074;49.254;6.702;2023-12-28T03:30:34;7.80;99.90
9951;DHT22;24074;49.254;6.702;2023-12-28T03:33:00;7.80;99.90
9951;DHT22;24074;49.254;6.702;2023-12-28T03:35:25;7.80;99.90
9951;DHT22;24074;49.254;6.702;2023-12-28T03:37:51;7.80;99.90
9951;DHT22;24074;49.254;6.702;2023-12-28T03:40:16;7.70;99.90
9951;DHT22;24074;49.254;6.702;2023-12-28T03:42:42;7.70;99.90
9951;DHT22;24074;49.254;6.702;2023-12-28T03:45:08;7.70;99.90
9951;DHT22;24074;49.254;6.702;2023-12-28T03:47:33;7.70;99.90
9951;DHT22;24074;49.254;6.702;2023-12-28T03:49:59;7.60;99.90
9951;DHT22;24074;49.254;6.702;2023-12-28T03:52:27;7.60;99.90
9951;DHT22;24074;49.254;6.702;2023-12-28T03:54:56;7.60;99.90
9951;DHT22;24074;49.254;6.702;2023-12-28T03:57:21;7.60;99.90
9951;DHT22;24074;49.254;6.702;2023-12-28T03:59:47;7.60;99.90
9951;DHT22;24074;49.254;6.702;2023-12-28T04:02:13;7.60;99.90
9951;DHT22;24074;49.254;6.702;2023-12-28T04:04:39;7.70;99.90
9951;DHT22;24074;49.254;6.702;2023-12-28T04:07:05;7.70;99.90
9951;DHT22;24074;49.254;6.702;2023-12-28T04:09:33;7.70;99.90
9951;DHT22;24074;49.254;6.702;2023-12-28T04:11:58;7.70;99.90
9951;DHT22;24074;49.254;6.702;2023-12-28T04:14:24;7.80;99.90
9951;DHT22;24074;49.254;6.702;2023-12-28T04:16:49;7.80;99.90
9951;DHT22;24074;49.254;6.702;2023-12-28T04:19:15;7.80;99.90
9951;DHT22;24074;49.254;6.702;2023-12-28T04:21:43;7.80;99.90
9951;DHT22;24074;49.254;6.702;2023-12-28T04:24:09;7.90;99.90
9951;DHT22;24074;49.254;6.702;2023-12-28T04:26:35;8.00;99.90
9951;DHT22;24074;49.254;6.702;2023-12-28T04:29:00;8.00;99.90
9951;DHT22;24074;49.254;6.702;2023-12-28T04:31:26;8.00;99.90
9951;DHT22;24074;49.254;6.702;2023-12-28T04:33:51;8.00;99.90
9951;DHT22;24074;49.254;6.702;2023-12-28T04:36:17;8.00;99.90
9951;DHT22;24074;49.254;6.702;2023-12-28T04:38:43;8.10;99.90
9951;DHT22;24074;49.254;6.702;2023-12-28T04:41:09;8.10;99.90
9951;DHT22;24074;49.254;6.702;2023-12-28T04:43:35;8.10;99.90
9951;DHT22;24074;49.254;6.702;2023-12-28T04:46:04;8.10;99.90
9951;DHT22;24074;49.254;6.702;2023-12-28T04:48:34;8.10;99.90
9951;DHT22;24074;49.254;6.702;2023-12-28T04:51:02;8.20;99.90
9951;DHT22;24074;49.254;6.702;2023-12-28T04:53:28;8.20;99.90
9951;DHT22;24074;49.254;6.702;2023-12-28T04:55:55;8.20;99.90
9951;DHT22;24074;49.254;6.702;2023-12-28T04:58:20;8.20;99.90
9951;DHT22;24074;49.254;6.702;2023-12-28T05:00:46;8.20;99.90
9951;DHT22;24074;49.254;6.702;2023-12-28T05:03:12;8.30;99.90
9951;DHT22;24074;49.254;6.702;2023-12-28T05:05:37;8.30;99.90
9951;DHT22;24074;49.254;6.702;2023-12-28T05:08:03;8.30;99.90
9951;DHT22;24074;49.254;6.702;2023-12-28T05:10:29;8.30;99.90
9951;DHT22;24074;49.254;6.702;2023-12-28T05:12:54;8.30;99.90
9951;DHT22;24074;49.254;6.702;2023-12-28T05:15:20;8.30;99.90
9951;DHT22;24074;49.254;6.702;2023-12-28T05:17:46;8.30;99.90
9951;DHT22;24074;49.254;6.702;2023-12-28T05:20:11;8.40;99.90
9951;DHT22;24074;49.254;6.702;2023-12-28T05:22:37;8.40;99.90
9951;DHT22;24074;49.254;6.702;2023-12-28T05:25:03;8.40;99.90
9951;DHT22;24074;49.254;6.702;2023-12-28T05:27:28;8.50;99.90
9951;DHT22;24074;49.254;6.702;2023-12-28T05:29:54;8.50;99.90
9951;DHT22;24074;49.254;6.702;2023-12-28T05:32:19;8.50;99.90
9951;DHT22;24074;49.254;6.702;2023-12-28T05:34:45;8.50;99.90
9951;DHT22;24074;49.254;6.702;2023-12-28T05:37:10;8.60;99.90
9951;DHT22;24074;49.254;6.702;2023-12-28T05:39:36;8.60;99.90
9951;DHT22;24074;49.254;6.702;2023-12-28T05:42:02;8.60;99.90
9951;DHT22;24074;49.254;6.702;2023-12-28T05:44:27;8.60;99.90
9951;DHT22;24074;49.254;6.702;2023-12-28T05:46:53;8.60;99.90
9951;DHT22;24074;49.254;6.702;2023-12-28T05:49:18;8.60;99.90
9951;DHT22;24074;49.254;6.702;2023-12-28T05:51:44;8.60;99.90
9951;DHT22;24074;49.254;6.702;2023-12-28T05:54:12;8.60;99.90
9951;DHT22;24074;49.254;6.702;2023-12-28T05:56:38;8.60;99.90
9951;DHT22;24074;49.254;6.702;2023-12-28T05:59:03;8.70;99.90
9951;DHT22;24074;49.254;6.702;2023-12-28T06:01:29;8.60;99.90
9951;DHT22;24074;49.254;6.702;2023-12-28T06:03:54;8.70;99.90
9951;DHT22;24074;49.254;6.702;2023-12-28T06:06:20;8.70;99.90
9951;DHT22;24074;49.254;6.702;2023-12-28T06:08:46;8.70;99.90
9951;DHT22;24074;49.254;6.702;2023-12-28T06:11:12;8.70;99.90
9951;DHT22;24074;49.254;6.702;2023-12-28T06:13:37;8.70;99.90
9951;DHT22;24074;49.254;6.702;2023-12-28T06:16:03;8.70;99.90
9951;DHT22;24074;49.254;6.702;2023-12-28T06:18:29;8.70;99.90
9951;DHT22;24074;49.254;6.702;2023-12-28T06:20:54;8.70;99.90
9951;DHT22;24074;49.254;6.702;2023-12-28T06:23:20;8.70;99.90
9951;DHT22;24074;49.254;6.702;2023-12-28T06:25:46;8.70;99.90
9951;DHT22;24074;49.254;6.702;2023-12-28T06:28:11;8.70;99.90
9951;DHT22;24074;49.254;6.702;2023-12-28T06:30:37;8.70;99.90
9951;DHT22;24074;49.254;6.702;2023-12-28T06:33:03;8.70;99.90
9951;DHT22;24074;49.254;6.702;2023-12-28T06:35:28;8.70;99.90
9951;DHT22;24074;49.254;6.702;2023-12-28T06:37:54;8.70;99.90
9951;DHT22;24074;49.254;6.702;2023-12-28T06:40:19;8.60;99.90
9951;DHT22;24074;49.254;6.702;2023-12-28T06:42:45;8.60;99.90
9951;DHT22;24074;49.254;6.702;2023-12-28T06:45:10;8.60;99.90
9951;DHT22;24074;49.254;6.702;2023-12-28T06:47:36;8.60;99.90
9951;DHT22;24074;49.254;6.702;2023-12-28T06:50:02;8.60;99.90
9951;DHT22;24074;49.254;6.702;2023-12-28T06:52:27;8.60;99.90
9951;DHT22;24074;49.254;6.702;2023-12-28T06:54:54;8.60;99.90
9951;DHT22;24074;49.254;6.702;2023-12-28T06:57:19;8.60;99.90
9951;DHT22;24074;49.254;6.702;2023-12-28T06:59:45;8.60;99.90
9951;DHT22;24074;49.254;6.702;2023-12-28T07:02:10;8.60;99.90
9951;DHT22;24074;49.254;6.702;2023-12-28T07:04:36;8.60;99.90
9951;DHT22;24074;49.254;6.702;2023-12-28T07:07:03;8.60;99.90
9951;DHT22;24074;49.254;6.702;2023-12-28T07:09:29;8.70;99.90
9951;DHT22;24074;49.254;6.702;2023-12-28T07:11:54;8.70;99.90
9951;DHT22;24074;49.254;6.702;2023-12-28T07:14:20;8.60;99.90
9951;DHT22;24074;49.254;6.702;2023-12-28T07:16:45;8.60;99.90
9951;DHT22;24074;49.254;6.702;2023-12-28T07:19:14;8.60;99.90
9951;DHT22;24074;49.254;6.702;2023-12-28T07:21:39;8.60;99.90
9951;DHT22;24074;49.254;6.702;2023-12-28T07:24:05;8.60;99.90
9951;DHT22;24074;49.254;6.702;2023-12-28T07:26:33;8.60;99.90
9951;DHT22;24074;49.254;6.702;2023-12-28T07:28:59;8.60;99.90
9951;DHT22;24074;49.254;6.702;2023-12-28T07:31:25;8.60;99.90
9951;DHT22;24074;49.254;6.702;2023-12-28T07:33:51;8.60;99.90
9951;DHT22;24074;49.254;6.702;2023-12-28T07:36:17;8.60;99.90
9951;DHT22;24074;49.254;6.702;2023-12-28T07:38:43;8.70;99.90
9951;DHT22;24074;49.254;6.702;2023-12-28T07:41:09;8.70;99.90
9951;DHT22;24074;49.254;6.702;2023-12-28T07:43:35;8.70;99.90
9951;DHT22;24074;49.254;6.702;2023-12-28T07:46:01;8.70;99.90
9951;DHT22;24074;49.254;6.702;2023-12-28T07:48:27;8.70;99.90
9951;DHT22;24074;49.254;6.702;2023-12-28T07:50:55;8.70;99.90
9951;DHT22;24074;49.254;6.702;2023-12-28T07:53:20;8.70;99.90
9951;DHT22;24074;49.254;6.702;2023-12-28T07:55:46;8.70;99.90
9951;DHT22;24074;49.254;6.702;2023-12-28T07:58:12;8.70;99.90
9951;DHT22;24074;49.254;6.702;2023-12-28T08:00:38;8.80;99.90
9951;DHT22;24074;49.254;6.702;2023-12-28T08:03:04;8.80;99.90
9951;DHT22;24074;49.254;6.702;2023-12-28T08:05:29;8.80;99.90
9951;DHT22;24074;49.254;6.702;2023-12-28T08:07:55;8.80;99.90
9951;DHT22;24074;49.254;6.702;2023-12-28T08:10:20;8.80;99.90
9951;DHT22;24074;49.254;6.702;2023-12-28T08:12:46;8.90;99.90
9951;DHT22;24074;49.254;6.702;2023-12-28T08:15:11;8.90;99.90
9951;DHT22;24074;49.254;6.702;2023-12-28T08:17:37;8.90;99.90
9951;DHT22;24074;49.254;6.702;2023-12-28T08:20:04;8.90;99.90
9951;DHT22;24074;49.254;6.702;2023-12-28T08:22:29;8.80;99.90
9951;DHT22;24074;49.254;6.702;2023-12-28T08:24:56;8.80;99.90
9951;DHT22;24074;49.254;6.702;2023-12-28T08:27:23;8.90;99.90
9951;DHT22;24074;49.254;6.702;2023-12-28T08:29:48;8.90;99.90
9951;DHT22;24074;49.254;6.702;2023-12-28T08:32:14;8.90;99.90
9951;DHT22;24074;49.254;6.702;2023-12-28T08:34:40;8.90;99.90
9951;DHT22;24074;49.254;6.702;2023-12-28T08:37:05;9.00;99.90
9951;DHT22;24074;49.254;6.702;2023-12-28T08:39:31;9.00;99.90
9951;DHT22;24074;49.254;6.702;2023-12-28T08:41:57;9.00;99.90
9951;DHT22;24074;49.254;6.702;2023-12-28T08:44:22;9.00;99.90
9951;DHT22;24074;49.254;6.702;2023-12-28T08:46:48;9.10;99.90
9951;DHT22;24074;49.254;6.702;2023-12-28T08:49:14;9.10;99.90
9951;DHT22;24074;49.254;6.702;2023-12-28T08:51:41;9.10;99.90
9951;DHT22;24074;49.254;6.702;2023-12-28T08:54:08;9.10;99.90
9951;DHT22;24074;49.254;6.702;2023-12-28T08:56:34;9.10;99.90
9951;DHT22;24074;49.254;6.702;2023-12-28T08:59:00;9.10;99.90
9951;DHT22;24074;49.254;6.702;2023-12-28T09:01:26;9.10;99.90
9951;DHT22;24074;49.254;6.702;2023-12-28T09:03:52;9.20;99.90
9951;DHT22;24074;49.254;6.702;2023-12-28T09:06:19;9.20;99.90
9951;DHT22;24074;49.254;6.702;2023-12-28T09:08:47;9.20;99.90
9951;DHT22;24074;49.254;6.702;2023-12-28T09:11:13;9.20;99.90
9951;DHT22;24074;49.254;6.702;2023-12-28T09:13:40;9.30;99.90
9951;DHT22;24074;49.254;6.702;2023-12-28T09:16:09;9.40;99.90
9951;DHT22;24074;49.254;6.702;2023-12-28T09:18:35;9.50;99.90
9951;DHT22;24074;49.254;6.702;2023-12-28T09:21:07;9.50;99.90
9951;DHT22;24074;49.254;6.702;2023-12-28T09:23:33;9.50;99.90
9951;DHT22;24074;49.254;6.702;2023-12-28T09:26:00;9.40;99.90
9951;DHT22;24074;49.254;6.702;2023-12-28T09:28:26;9.40;99.90
9951;DHT22;24074;49.254;6.702;2023-12-28T09:30:52;9.40;99.90
9951;DHT22;24074;49.254;6.702;2023-12-28T09:33:17;9.30;99.90
9951;DHT22;24074;49.254;6.702;2023-12-28T09:35:43;9.40;99.90
9951;DHT22;24074;49.254;6.702;2023-12-28T09:38:08;9.40;99.90
9951;DHT22;24074;49.254;6.702;2023-12-28T09:40:35;9.40;99.90
9951;DHT22;24074;49.254;6.702;2023-12-28T09:45:38;9.30;99.90
9951;DHT22;24074;49.254;6.702;2023-12-28T09:48:05;9.20;99.90
9951;DHT22;24074;49.254;6.702;2023-12-28T09:50:32;9.20;99.90
9951;DHT22;24074;49.254;6.702;2023-12-28T09:52:58;9.30;99.90
9951;DHT22;24074;49.254;6.702;2023-12-28T09:55:23;9.10;99.90
9951;DHT22;24074;49.254;6.702;2023-12-28T09:57:51;9.10;99.90
9951;DHT22;24074;49.254;6.702;2023-12-28T10:00:17;9.10;99.90
9951;DHT22;24074;49.254;6.702;2023-12-28T10:02:46;9.10;99.90
9951;DHT22;24074;49.254;6.702;2023-12-28T10:05:15;9.10;99.90
9951;DHT22;24074;49.254;6.702;2023-12-28T10:07:45;9.00;99.90
9951;DHT22;24074;49.254;6.702;2023-12-28T10:10:11;9.00;99.90
9951;DHT22;24074;49.254;6.702;2023-12-28T10:12:39;9.00;99.90
9951;DHT22;24074;49.254;6.702;2023-12-28T10:15:05;9.00;99.90
9951;DHT22;24074;49.254;6.702;2023-12-28T10:17:34;9.00;99.90
9951;DHT22;24074;49.254;6.702;2023-12-28T10:20:01;9.10;99.90
9951;DHT22;24074;49.254;6.702;2023-12-28T10:22:30;9.00;99.90
9951;DHT22;24074;49.254;6.702;2023-12-28T10:24:56;9.10;99.90
9951;DHT22;24074;49.254;6.702;2023-12-28T10:27:22;9.00;99.90
9951;DHT22;24074;49.254;6.702;2023-12-28T10:29:48;9.10;99.90
9951;DHT22;24074;49.254;6.702;2023-12-28T10:32:13;9.00;99.90
9951;DHT22;24074;49.254;6.702;2023-12-28T10:34:39;9.10;99.90
9951;DHT22;24074;49.254;6.702;2023-12-28T10:37:05;9.10;99.90
9951;DHT22;24074;49.254;6.702;2023-12-28T10:39:32;9.10;99.90
9951;DHT22;24074;49.254;6.702;2023-12-28T10:42:02;9.10;99.90
9951;DHT22;24074;49.254;6.702;2023-12-28T10:44:35;9.20;99.90
9951;DHT22;24074;49.254;6.702;2023-12-28T10:47:04;9.20;99.90
9951;DHT22;24074;49.254;6.702;2023-12-28T10:49:36;9.20;99.90
9951;DHT22;24074;49.254;6.702;2023-12-28T10:52:05;9.20;99.90
9951;DHT22;24074;49.254;6.702;2023-12-28T10:57:40;9.10;99.90
9951;DHT22;24074;49.254;6.702;2023-12-28T11:00:11;9.10;99.90
9951;DHT22;24074;49.254;6.702;2023-12-28T11:02:45;9.00;99.90
9951;DHT22;24074;49.254;6.702;2023-12-28T11:05:13;9.00;99.90
9951;DHT22;24074;49.254;6.702;2023-12-28T11:07:40;9.00;99.90
9951;DHT22;24074;49.254;6.702;2023-12-28T11:10:09;8.90;99.90
9951;DHT22;24074;49.254;6.702;2023-12-28T11:12:37;8.90;99.90
9951;DHT22;24074;49.254;6.702;2023-12-28T11:15:05;8.80;99.90
9951;DHT22;24074;49.254;6.702;2023-12-28T11:17:33;8.80;99.90
9951;DHT22;24074;49.254;6.702;2023-12-28T11:20:02;8.80;99.90
9951;DHT22;24074;49.254;6.702;2023-12-28T11:22:30;8.80;99.90
9951;DHT22;24074;49.254;6.702;2023-12-28T11:24:56;8.80;99.90
9951;DHT22;24074;49.254;6.702;2023-12-28T11:27:22;8.70;99.90
9951;DHT22;24074;49.254;6.702;2023-12-28T11:29:48;8.80;99.90
9951;DHT22;24074;49.254;6.702;2023-12-28T11:32:14;8.70;99.90
9951;DHT22;24074;49.254;6.702;2023-12-28T11:34:40;8.70;99.90
9951;DHT22;24074;49.254;6.702;2023-12-28T11:37:13;8.70;99.90
9951;DHT22;24074;49.254;6.702;2023-12-28T11:39:41;8.70;99.90
9951;DHT22;24074;49.254;6.702;2023-12-28T11:42:10;8.70;99.90
9951;DHT22;24074;49.254;6.702;2023-12-28T11:44:43;8.80;99.90
9951;DHT22;24074;49.254;6.702;2023-12-28T11:47:25;8.90;99.90
9951;DHT22;24074;49.254;6.702;2023-12-28T11:49:52;9.00;99.90
9951;DHT22;24074;49.254;6.702;2023-12-28T11:52:27;9.10;99.90
9951;DHT22;24074;49.254;6.702;2023-12-28T11:54:53;9.20;99.90
9951;DHT22;24074;49.254;6.702;2023-12-28T11:57:19;9.10;99.90
9951;DHT22;24074;49.254;6.702;2023-12-28T11:59:44;9.20;99.90
9951;DHT22;24074;49.254;6.702;2023-12-28T12:02:10;9.20;99.90
9951;DHT22;24074;49.254;6.702;2023-12-28T12:04:36;9.20;99.90
9951;DHT22;24074;49.254;6.702;2023-12-28T12:07:06;9.30;99.90
9951;DHT22;24074;49.254;6.702;2023-12-28T12:09:31;9.20;99.90
9951;DHT22;24074;49.254;6.702;2023-12-28T12:12:04;9.20;99.90
9951;DHT22;24074;49.254;6.702;2023-12-28T12:14:30;9.20;99.90
9951;DHT22;24074;49.254;6.702;2023-12-28T12:16:56;9.30;99.90
9951;DHT22;24074;49.254;6.702;2023-12-28T12:19:25;9.40;99.90
9951;DHT22;24074;49.254;6.702;2023-12-28T12:21:55;9.40;99.90
9951;DHT22;24074;49.254;6.702;2023-12-28T12:24:21;9.40;99.90
9951;DHT22;24074;49.254;6.702;2023-12-28T12:26:49;9.50;99.90
9951;DHT22;24074;49.254;6.702;2023-12-28T12:29:15;9.50;99.90
9951;DHT22;24074;49.254;6.702;2023-12-28T12:31:41;9.40;99.90
9951;DHT22;24074;49.254;6.702;2023-12-28T12:34:09;9.50;99.90
9951;DHT22;24074;49.254;6.702;2023-12-28T12:36:35;9.50;99.90
9951;DHT22;24074;49.254;6.702;2023-12-28T12:39:02;9.60;99.90
9951;DHT22;24074;49.254;6.702;2023-12-28T12:41:30;9.60;99.90
9951;DHT22;24074;49.254;6.702;2023-12-28T12:43:56;9.70;99.90
9951;DHT22;24074;49.254;6.702;2023-12-28T12:46:22;9.70;99.90
9951;DHT22;24074;49.254;6.702;2023-12-28T12:48:58;9.80;99.90
9951;DHT22;24074;49.254;6.702;2023-12-28T12:51:27;9.90;99.90
9951;DHT22;24074;49.254;6.702;2023-12-28T12:53:57;10.00;99.90
9951;DHT22;24074;49.254;6.702;2023-12-28T12:56:23;9.90;99.90
9951;DHT22;24074;49.254;6.702;2023-12-28T12:58:49;10.00;99.90
9951;DHT22;24074;49.254;6.702;2023-12-28T13:01:15;10.00;99.90
9951;DHT22;24074;49.254;6.702;2023-12-28T13:03:40;10.10;99.90
9951;DHT22;24074;49.254;6.702;2023-12-28T13:06:06;10.00;99.90
9951;DHT22;24074;49.254;6.702;2023-12-28T13:08:33;10.00;99.90
9951;DHT22;24074;49.254;6.702;2023-12-28T13:10:58;10.00;99.90
9951;DHT22;24074;49.254;6.702;2023-12-28T13:13:24;10.00;99.90
9951;DHT22;24074;49.254;6.702;2023-12-28T13:15:49;9.90;99.90
9951;DHT22;24074;49.254;6.702;2023-12-28T13:18:15;10.00;99.90
9951;DHT22;24074;49.254;6.702;2023-12-28T13:20:40;9.90;99.90
9951;DHT22;24074;49.254;6.702;2023-12-28T13:23:08;9.90;99.90
9951;DHT22;24074;49.254;6.702;2023-12-28T13:25:33;9.90;99.90
9951;DHT22;24074;49.254;6.702;2023-12-28T13:27:59;9.90;99.90
9951;DHT22;24074;49.254;6.702;2023-12-28T13:30:25;9.90;99.90
9951;DHT22;24074;49.254;6.702;2023-12-28T13:32:54;9.90;99.90
9951;DHT22;24074;49.254;6.702;2023-12-28T13:35:22;9.80;99.90
9951;DHT22;24074;49.254;6.702;2023-12-28T13:37:47;9.80;99.90
9951;DHT22;24074;49.254;6.702;2023-12-28T13:40:16;9.80;99.90
9951;DHT22;24074;49.254;6.702;2023-12-28T13:42:41;9.80;99.90
9951;DHT22;24074;49.254;6.702;2023-12-28T13:45:07;9.80;99.90
9951;DHT22;24074;49.254;6.702;2023-12-28T13:47:33;9.80;99.90
9951;DHT22;24074;49.254;6.702;2023-12-28T13:49:59;9.90;99.90
9951;DHT22;24074;49.254;6.702;2023-12-28T13:52:25;9.90;99.90
9951;DHT22;24074;49.254;6.702;2023-12-28T13:54:50;9.90;99.90
9951;DHT22;24074;49.254;6.702;2023-12-28T13:57:16;9.90;99.90
9951;DHT22;24074;49.254;6.702;2023-12-28T13:59:42;9.90;99.90
9951;DHT22;24074;49.254;6.702;2023-12-28T14:02:07;9.90;99.90
9951;DHT22;24074;49.254;6.702;2023-12-28T14:04:33;9.90;99.90
9951;DHT22;24074;49.254;6.702;2023-12-28T14:06:58;9.90;99.90
9951;DHT22;24074;49.254;6.702;2023-12-28T14:09:25;10.00;99.90
9951;DHT22;24074;49.254;6.702;2023-12-28T14:11:50;10.00;99.90
9951;DHT22;24074;49.254;6.702;2023-12-28T14:14:16;10.10;99.90
9951;DHT22;24074;49.254;6.702;2023-12-28T14:16:42;10.10;99.90
9951;DHT22;24074;49.254;6.702;2023-12-28T14:19:07;10.10;99.90
9951;DHT22;24074;49.254;6.702;2023-12-28T14:21:36;10.10;99.90
9951;DHT22;24074;49.254;6.702;2023-12-28T14:24:03;10.00;99.90
9951;DHT22;24074;49.254;6.702;2023-12-28T14:26:29;10.00;99.90
9951;DHT22;24074;49.254;6.702;2023-12-28T14:28:56;10.00;99.90
9951;DHT22;24074;49.254;6.702;2023-12-28T14:31:22;9.90;99.90
9951;DHT22;24074;49.254;6.702;2023-12-28T14:33:48;9.90;99.90
9951;DHT22;24074;49.254;6.702;2023-12-28T14:36:31;9.90;99.90
9951;DHT22;24074;49.254;6.702;2023-12-28T14:39:01;9.90;99.90
9951;DHT22;24074;49.254;6.702;2023-12-28T14:41:37;9.90;99.90
9951;DHT22;24074;49.254;6.702;2023-12-28T14:44:03;9.80;99.90
9951;DHT22;24074;49.254;6.702;2023-12-28T14:46:30;9.90;99.90
9951;DHT22;24074;49.254;6.702;2023-12-28T14:48:56;9.80;99.90
9951;DHT22;24074;49.254;6.702;2023-12-28T14:51:22;9.80;99.90
9951;DHT22;24074;49.254;6.702;2023-12-28T14:53:48;9.80;99.90
9951;DHT22;24074;49.254;6.702;2023-12-28T14:56:14;9.70;99.90
9951;DHT22;24074;49.254;6.702;2023-12-28T14:58:40;9.70;99.90
9951;DHT22;24074;49.254;6.702;2023-12-28T15:01:10;9.70;99.90
9951;DHT22;24074;49.254;6.702;2023-12-28T15:03:36;9.70;99.90
9951;DHT22;24074;49.254;6.702;2023-12-28T15:06:04;9.70;99.90
9951;DHT22;24074;49.254;6.702;2023-12-28T15:08:30;9.60;99.90
9951;DHT22;24074;49.254;6.702;2023-12-28T15:10:56;9.60;99.90
9951;DHT22;24074;49.254;6.702;2023-12-28T15:13:22;9.60;99.90
9951;DHT22;24074;49.254;6.702;2023-12-28T15:15:48;9.60;99.90
9951;DHT22;24074;49.254;6.702;2023-12-28T15:18:14;9.60;99.90
9951;DHT22;24074;49.254;6.702;2023-12-28T15:20:45;9.60;99.90
9951;DHT22;24074;49.254;6.702;2023-12-28T15:23:11;9.60;99.90
9951;DHT22;24074;49.254;6.702;2023-12-28T15:25:37;9.60;99.90
9951;DHT22;24074;49.254;6.702;2023-12-28T15:28:03;9.50;99.90
9951;DHT22;24074;49.254;6.702;2023-12-28T15:30:29;9.60;99.90
9951;DHT22;24074;49.254;6.702;2023-12-28T15:32:54;9.60;99.90
9951;DHT22;24074;49.254;6.702;2023-12-28T15:35:20;9.60;99.90
9951;DHT22;24074;49.254;6.702;2023-12-28T15:37:45;9.60;99.90
9951;DHT22;24074;49.254;6.702;2023-12-28T15:40:11;9.60;99.90
9951;DHT22;24074;49.254;6.702;2023-12-28T15:42:37;9.50;99.90
9951;DHT22;24074;49.254;6.702;2023-12-28T15:45:03;9.60;99.90
9951;DHT22;24074;49.254;6.702;2023-12-28T15:47:28;9.50;99.90
9951;DHT22;24074;49.254;6.702;2023-12-28T15:49:54;9.50;99.90
9951;DHT22;24074;49.254;6.702;2023-12-28T15:52:20;9.50;99.90
9951;DHT22;24074;49.254;6.702;2023-12-28T15:54:46;9.50;99.90
9951;DHT22;24074;49.254;6.702;2023-12-28T15:57:11;9.50;99.90
9951;DHT22;24074;49.254;6.702;2023-12-28T15:59:37;9.40;99.90
9951;DHT22;24074;49.254;6.702;2023-12-28T16:02:03;9.50;99.90